createdAt,value
2019-05-22T00:02:34.593Z,1.80
2019-05-22T00:05:15.056Z,2.07
2019-05-22T00:07:47.153Z,1.93
2019-05-22T00:10:19.555Z,2.10
2019-05-22T00:12:50.028Z,2.10
2019-05-22T00:15:21.101Z,1.80
2019-05-22T00:17:51.733Z,1.80
2019-05-22T00:20:24.904Z,2.10
2019-05-22T00:22:56.685Z,2.23
2019-05-22T00:25:29.060Z,1.70
2019-05-22T00:28:00.322Z,1.80
2019-05-22T00:30:32.515Z,1.80
2019-05-22T00:33:03.198Z,2.13
2019-05-22T00:35:34.303Z,1.90
2019-05-22T00:38:06.446Z,2.03
2019-05-22T00:40:43.068Z,1.90
2019-05-22T00:43:14.587Z,1.80
2019-05-22T00:45:46.195Z,1.70
2019-05-22T00:48:18.935Z,2.17
2019-05-22T00:50:57.365Z,2.00
2019-05-22T00:53:56.578Z,2.27
2019-05-22T00:56:58.946Z,1.97
2019-05-22T00:59:32.863Z,1.80
2019-05-22T01:02:04.688Z,1.80
2019-05-22T01:04:38.575Z,2.37
2019-05-22T01:07:18.983Z,1.97
2019-05-22T01:09:52.230Z,2.03
2019-05-22T01:12:29.595Z,2.27
2019-05-22T01:15:04.559Z,2.33
2019-05-22T01:17:36.971Z,2.03
2019-05-22T01:20:10.128Z,2.17
2019-05-22T01:22:41.998Z,2.03
2019-05-22T01:25:14.629Z,2.00
2019-05-22T01:27:46.199Z,2.30
2019-05-22T01:30:24.510Z,2.13
2019-05-22T01:32:54.401Z,2.33
2019-05-22T01:35:29.450Z,2.00
2019-05-22T01:38:02.028Z,2.23
2019-05-22T01:40:46.880Z,2.03
2019-05-22T01:43:21.304Z,2.43
2019-05-22T01:45:53.019Z,2.30
2019-05-22T01:48:26.634Z,2.17
2019-05-22T01:50:57.519Z,2.10
2019-05-22T01:53:36.116Z,2.27
2019-05-22T01:56:07.182Z,2.17
2019-05-22T01:58:39.358Z,2.40
2019-05-22T02:01:16.433Z,2.70
2019-05-22T02:03:47.078Z,2.40
2019-05-22T02:06:19.341Z,2.27
2019-05-22T02:08:53.308Z,2.20
2019-05-22T02:11:25.772Z,1.90
2019-05-22T02:14:03.498Z,2.30
2019-05-22T02:16:36.111Z,2.50
2019-05-22T02:19:07.053Z,2.27
2019-05-22T02:21:36.403Z,2.40
2019-05-22T02:24:08.410Z,2.50
2019-05-22T02:26:39.874Z,2.20
2019-05-22T02:29:11.701Z,2.73
2019-05-22T02:31:43.813Z,2.00
2019-05-22T02:34:13.236Z,2.57
2019-05-22T02:36:43.306Z,2.90
2019-05-22T02:39:23.845Z,2.40
2019-05-22T02:41:58.961Z,2.23
2019-05-22T02:44:29.756Z,2.60
2019-05-22T02:47:18.158Z,2.60
2019-05-22T02:49:33.780Z,2.47
2019-05-22T02:52:03.613Z,2.50
2019-05-22T02:54:34.481Z,2.37
2019-05-22T02:57:04.704Z,2.20
2019-05-22T02:59:34.716Z,2.10
2019-05-22T03:02:04.785Z,2.20
2019-05-22T03:05:01.381Z,2.23
2019-05-22T03:07:32.963Z,2.60
2019-05-22T03:10:03.639Z,2.40
2019-05-22T03:12:36.366Z,2.10
2019-05-22T03:15:11.529Z,2.83
2019-05-22T03:17:45.574Z,2.63
2019-05-22T03:20:19.289Z,2.10
2019-05-22T03:23:34.885Z,2.40
2019-05-22T03:26:05.632Z,2.40
2019-05-22T03:28:36.807Z,2.30
2019-05-22T03:31:09.208Z,3.33
2019-05-22T03:33:39.168Z,2.90
2019-05-22T03:36:17.340Z,4.17
2019-05-22T03:38:47.637Z,3.97
2019-05-22T03:41:17.588Z,3.43
2019-05-22T03:43:48.553Z,4.40
2019-05-22T03:46:25.362Z,4.23
2019-05-22T03:48:54.915Z,4.10
2019-05-22T03:51:24.289Z,4.20
2019-05-22T03:53:54.361Z,3.23
2019-05-22T03:56:24.320Z,3.80
2019-05-22T03:58:53.752Z,3.07
2019-05-22T04:01:23.337Z,3.90
2019-05-22T04:03:54.276Z,3.43
2019-05-22T04:06:25.186Z,4.10
2019-05-22T04:08:56.993Z,4.57
2019-05-22T04:11:32.126Z,3.90
2019-05-22T04:14:02.390Z,4.20
2019-05-22T04:19:49.394Z,4.00
2019-05-22T04:22:14.934Z,4.70
2019-05-22T04:24:45.629Z,4.77
2019-05-22T04:27:17.440Z,4.07
2019-05-22T04:29:50.216Z,4.47
2019-05-22T04:32:32.133Z,4.57
2019-05-22T04:35:02.811Z,5.10
2019-05-22T04:37:33.333Z,4.20
2019-05-22T04:40:53.312Z,4.40
2019-05-22T04:43:28.675Z,4.10
2019-05-22T04:45:59.539Z,4.70
2019-05-22T04:48:31.431Z,4.70
2019-05-22T04:51:03.473Z,4.40
2019-05-22T04:53:32.962Z,5.30
2019-05-22T04:56:02.376Z,5.40
2019-05-22T04:58:33.705Z,4.37
2019-05-22T05:01:03.120Z,4.43
2019-05-22T05:03:32.786Z,4.30
2019-05-22T05:06:05.955Z,4.30
2019-05-22T05:08:33.789Z,3.63
2019-05-22T05:11:05.596Z,4.30
2019-05-22T05:13:34.940Z,4.23
2019-05-22T05:16:05.173Z,3.50
2019-05-22T05:18:35.310Z,5.23
2019-05-22T05:21:05.272Z,4.43
2019-05-22T05:23:34.775Z,4.57
2019-05-22T05:26:04.561Z,3.90
2019-05-22T05:28:34.142Z,4.57
2019-05-22T05:31:03.679Z,4.50
2019-05-22T05:33:37.388Z,4.13
2019-05-22T05:36:07.789Z,5.37
2019-05-22T05:38:39.748Z,4.73
2019-05-22T05:41:09.977Z,5.23
2019-05-22T05:43:39.960Z,5.43
2019-05-22T05:46:11.239Z,5.20
2019-05-22T05:48:40.768Z,6.00
2019-05-22T05:51:45.400Z,6.47
2019-05-22T05:54:16.031Z,6.10
2019-05-22T05:56:48.423Z,6.27
2019-05-22T05:59:18.756Z,6.07
2019-05-22T06:01:52.067Z,7.57
2019-05-22T06:04:39.138Z,5.70
2019-05-22T06:07:25.041Z,5.50
2019-05-22T06:10:36.115Z,4.87
2019-05-22T06:13:07.907Z,4.90
2019-05-22T06:15:57.168Z,4.07
2019-05-22T06:18:37.357Z,5.17
2019-05-22T06:21:07.485Z,4.37
2019-05-22T06:24:15.377Z,5.47
2019-05-22T06:27:02.585Z,5.80
2019-05-22T06:30:04.054Z,5.73
2019-05-22T06:33:08.650Z,4.57
2019-05-22T06:35:38.570Z,5.10
2019-05-22T06:38:33.858Z,5.57
2019-05-22T06:41:03.453Z,5.23
2019-05-22T06:44:12.113Z,4.87
2019-05-22T06:46:45.840Z,4.40
2019-05-22T06:49:37.881Z,4.90
2019-05-22T06:52:08.392Z,3.97
2019-05-22T06:54:38.764Z,4.43
2019-05-22T06:57:13.782Z,4.23
2019-05-22T06:59:45.249Z,4.57
2019-05-22T07:02:15.362Z,3.97
2019-05-22T07:04:45.028Z,4.73
2019-05-22T07:07:15.887Z,4.40
2019-05-22T07:09:46.749Z,4.43
2019-05-22T07:12:24.896Z,4.13
2019-05-22T07:15:52.272Z,4.53
2019-05-22T07:18:24.485Z,4.57
2019-05-22T07:20:56.725Z,4.83
2019-05-22T07:23:35.167Z,4.77
2019-05-22T07:26:05.998Z,5.00
2019-05-22T07:28:36.588Z,4.77
2019-05-22T07:31:08.644Z,5.43
2019-05-22T07:33:38.596Z,5.37
2019-05-22T07:36:10.975Z,4.70
2019-05-22T07:38:39.142Z,5.03
2019-05-22T07:41:10.466Z,5.10
2019-05-22T07:43:41.509Z,5.00
2019-05-22T07:46:11.488Z,5.43
2019-05-22T07:48:41.521Z,5.67
2019-05-22T07:51:11.358Z,6.07
2019-05-22T07:53:42.204Z,5.47
2019-05-22T07:56:13.002Z,5.50
2019-05-22T07:58:43.299Z,5.67
2019-05-22T08:01:13.716Z,5.80
2019-05-22T08:03:45.669Z,6.00
2019-05-22T08:06:16.169Z,6.33
2019-05-22T08:08:46.885Z,6.17
2019-05-22T08:11:17.347Z,5.97
2019-05-22T08:13:47.391Z,5.87
2019-05-22T08:16:18.576Z,5.80
2019-05-22T08:18:48.042Z,5.73
2019-05-22T08:21:18.327Z,6.20
2019-05-22T08:23:47.816Z,5.30
2019-05-22T08:26:19.335Z,5.70
2019-05-22T08:28:49.753Z,5.47
2019-05-22T08:31:22.738Z,5.23
2019-05-22T08:33:52.735Z,5.17
2019-05-22T08:36:22.701Z,5.53
2019-05-22T08:38:53.954Z,4.90
2019-05-22T08:41:27.589Z,4.90
2019-05-22T08:44:15.213Z,5.33
2019-05-22T08:46:32.121Z,5.10
2019-05-22T08:49:02.095Z,5.77
2019-05-22T08:51:31.655Z,5.37
2019-05-22T08:54:05.902Z,5.83
2019-05-22T08:56:38.681Z,5.80
2019-05-22T08:59:18.854Z,5.63
2019-05-22T09:01:40.738Z,4.73
2019-05-22T09:04:10.605Z,4.90
2019-05-22T09:06:40.215Z,5.00
2019-05-22T09:09:09.864Z,5.13
2019-05-22T09:11:39.423Z,5.27
2019-05-22T09:14:08.913Z,5.80
2019-05-22T09:16:38.518Z,4.87
2019-05-22T09:19:12.528Z,4.37
2019-05-22T09:21:43.028Z,3.70
2019-05-22T09:24:17.545Z,3.77
2019-05-22T09:26:47.069Z,3.50
2019-05-22T09:29:16.744Z,3.77
2019-05-22T09:31:46.203Z,3.90
2019-05-22T09:34:15.731Z,3.53
2019-05-22T09:36:45.544Z,4.20
2019-05-22T09:39:15.773Z,2.97
2019-05-22T09:41:45.267Z,3.50
2019-05-22T09:44:15.464Z,4.00
2019-05-22T09:46:45.507Z,2.63
2019-05-22T09:49:14.968Z,2.17
2019-05-22T09:51:44.431Z,2.57
2019-05-22T09:54:14.164Z,2.37
2019-05-22T09:56:43.730Z,2.47
2019-05-22T09:59:13.335Z,2.00
2019-05-22T10:01:42.833Z,2.10
2019-05-22T10:04:12.411Z,2.10
2019-05-22T10:06:42.104Z,2.07
2019-05-22T10:09:11.692Z,1.13
2019-05-22T10:11:41.227Z,1.90
2019-05-22T10:14:10.894Z,1.60
2019-05-22T10:16:40.419Z,1.70
2019-05-22T10:19:09.890Z,1.97
2019-05-22T10:21:40.185Z,1.70
2019-05-22T10:24:13.346Z,1.37
2019-05-22T10:26:42.850Z,1.40
2019-05-22T10:29:12.645Z,1.40
2019-05-22T10:31:42.532Z,1.50
2019-05-22T10:34:12.120Z,1.30
2019-05-22T10:36:43.240Z,1.10
2019-05-22T10:39:12.836Z,1.30
2019-05-22T10:41:42.583Z,1.47
2019-05-22T10:44:12.291Z,1.03
2019-05-22T10:46:41.949Z,1.20
2019-05-22T10:49:11.917Z,1.30
2019-05-22T10:51:44.421Z,1.40
2019-05-22T10:54:14.160Z,1.47
2019-05-22T10:56:43.639Z,1.43
2019-05-22T10:59:13.712Z,1.10
2019-05-22T11:01:44.274Z,1.50
2019-05-22T11:04:14.442Z,1.10
2019-05-22T11:06:44.175Z,0.90
2019-05-22T11:09:14.559Z,1.27
2019-05-22T11:11:44.682Z,1.13
2019-05-22T11:14:15.031Z,0.90
2019-05-22T11:16:44.842Z,1.00
2019-05-22T11:19:15.313Z,0.80
2019-05-22T11:21:45.458Z,0.80
2019-05-22T11:24:15.189Z,1.07
2019-05-22T11:26:45.923Z,1.23
2019-05-22T11:29:15.731Z,1.00
2019-05-22T11:31:45.363Z,1.07
2019-05-22T11:34:14.801Z,0.67
2019-05-22T11:36:46.315Z,0.73
2019-05-22T11:39:17.394Z,0.73
2019-05-22T11:41:47.156Z,0.67
2019-05-22T11:44:17.141Z,0.70
2019-05-22T11:46:46.805Z,0.93
2019-05-22T11:49:16.519Z,0.63
2019-05-22T11:51:47.326Z,0.73
2019-05-22T11:54:16.858Z,0.63
2019-05-22T11:56:46.402Z,0.50
2019-05-22T11:59:16.060Z,0.60
2019-05-22T12:01:46.874Z,0.70
2019-05-22T12:04:16.511Z,0.87
2019-05-22T12:06:47.106Z,0.87
2019-05-22T12:09:16.492Z,0.70
2019-05-22T12:11:46.710Z,0.70
2019-05-22T12:14:17.834Z,0.67
2019-05-22T12:16:47.313Z,0.57
2019-05-22T12:19:17.170Z,0.83
2019-05-22T12:21:46.683Z,0.93
2019-05-22T12:24:26.967Z,1.43
2019-05-22T12:26:50.027Z,0.77
2019-05-22T12:29:19.805Z,0.93
2019-05-22T12:31:50.146Z,0.90
2019-05-22T12:34:19.600Z,0.80
2019-05-22T12:36:51.445Z,0.80
2019-05-22T12:39:21.647Z,0.67
2019-05-22T12:41:52.551Z,0.83
2019-05-22T12:44:22.896Z,0.70
2019-05-22T12:46:52.411Z,0.80
2019-05-22T12:49:22.072Z,0.60
2019-05-22T12:51:52.066Z,0.93
2019-05-22T12:54:22.401Z,0.70
2019-05-22T12:56:53.594Z,0.67
2019-05-22T12:59:26.741Z,0.90
2019-05-22T13:01:58.166Z,0.77
2019-05-22T13:04:31.953Z,0.80
2019-05-22T13:07:03.581Z,1.07
2019-05-22T13:09:33.047Z,0.60
2019-05-22T13:12:04.895Z,0.40
2019-05-22T13:14:35.829Z,0.60
2019-05-22T13:17:07.940Z,0.80
2019-05-22T13:19:43.826Z,0.47
2019-05-22T13:22:17.325Z,0.63
2019-05-22T13:24:47.569Z,0.90
2019-05-22T13:27:20.318Z,0.70
2019-05-22T13:29:50.854Z,0.60
2019-05-22T13:32:21.812Z,0.63
2019-05-22T13:34:51.827Z,0.47
2019-05-22T13:37:21.660Z,0.60
2019-05-22T13:39:52.789Z,0.77
2019-05-22T13:42:34.149Z,0.87
2019-05-22T13:45:04.995Z,0.80
2019-05-22T13:47:34.825Z,0.80
2019-05-22T13:50:04.620Z,0.90
2019-05-22T13:52:37.470Z,0.87
2019-05-22T13:55:08.375Z,0.90
2019-05-22T13:57:42.016Z,1.00
2019-05-22T14:00:13.461Z,1.10
2019-05-22T14:02:43.213Z,0.90
2019-05-22T14:05:14.007Z,0.90
2019-05-22T14:07:46.589Z,0.80
2019-05-22T14:10:16.786Z,1.30
2019-05-22T14:12:46.321Z,1.20
2019-05-22T14:15:16.164Z,1.77
2019-05-22T14:17:46.148Z,1.27
2019-05-22T14:20:17.407Z,1.10
2019-05-22T14:22:49.111Z,1.10
2019-05-22T14:25:20.874Z,0.90
2019-05-22T14:27:50.400Z,0.80
2019-05-22T14:30:21.120Z,1.30
2019-05-22T14:32:50.865Z,0.90
2019-05-22T14:35:23.789Z,0.90
2019-05-22T14:37:53.650Z,0.87
2019-05-22T14:40:26.308Z,1.20
2019-05-22T14:42:56.730Z,1.00
2019-05-22T14:45:26.521Z,0.90
2019-05-22T14:47:58.410Z,1.10
2019-05-22T14:50:32.361Z,1.23
2019-05-22T14:53:00.514Z,0.87
2019-05-22T14:55:32.663Z,0.63
2019-05-22T14:58:02.392Z,0.80
2019-05-22T15:00:33.797Z,0.50
2019-05-22T15:03:04.751Z,0.80
2019-05-22T15:05:35.265Z,0.90
2019-05-22T15:08:07.461Z,0.80
2019-05-22T15:10:38.304Z,0.80
2019-05-22T15:13:08.750Z,0.80
2019-05-22T15:15:40.545Z,1.17
2019-05-22T15:18:09.825Z,0.60
2019-05-22T15:20:49.359Z,0.83
2019-05-22T15:23:18.925Z,0.80
2019-05-22T15:25:48.991Z,0.77
2019-05-22T15:28:18.446Z,0.60
2019-05-22T15:30:47.813Z,0.63
2019-05-22T15:33:18.177Z,0.90
2019-05-22T15:35:47.681Z,0.80
2019-05-22T15:38:18.323Z,0.60
2019-05-22T15:40:47.863Z,0.53
2019-05-22T15:43:18.255Z,0.70
2019-05-22T15:45:49.695Z,0.70
2019-05-22T15:48:59.780Z,0.70
2019-05-22T15:51:33.955Z,0.70
2019-05-22T15:54:05.719Z,1.17
2019-05-22T15:56:39.658Z,0.70
2019-05-22T15:59:13.334Z,0.70
2019-05-22T16:01:44.799Z,0.70
2019-05-22T16:04:18.689Z,0.53
2019-05-22T16:09:38.983Z,0.50
2019-05-22T16:12:09.291Z,0.67
2019-05-22T16:14:39.841Z,0.60
2019-05-22T16:17:10.038Z,0.60
2019-05-22T16:19:41.076Z,0.57
2019-05-22T16:22:11.653Z,0.53
2019-05-22T16:24:41.170Z,0.70
2019-05-22T16:27:14.214Z,0.87
2019-05-22T16:29:45.569Z,0.50
2019-05-22T16:32:17.737Z,0.40
2019-05-22T16:34:47.800Z,0.50
2019-05-22T16:37:18.914Z,0.90
2019-05-22T16:39:50.439Z,0.83
2019-05-22T16:42:20.524Z,0.50
2019-05-22T16:44:49.997Z,0.70
2019-05-22T16:47:21.851Z,1.30
2019-05-22T16:49:53.376Z,0.60
2019-05-22T16:52:25.429Z,0.70
2019-05-22T16:54:58.665Z,0.40
2019-05-22T16:57:30.780Z,0.57
2019-05-22T17:00:01.348Z,0.60
2019-05-22T17:02:32.753Z,0.40
2019-05-22T17:05:02.503Z,0.40
2019-05-22T17:07:34.694Z,0.60
2019-05-22T17:10:04.693Z,0.30
2019-05-22T17:12:34.876Z,0.35
2019-05-22T17:15:06.190Z,0.50
2019-05-22T17:17:35.575Z,0.60
2019-05-22T17:20:06.328Z,0.70
2019-05-22T17:22:36.685Z,1.00
2019-05-22T17:25:07.535Z,0.57
2019-05-22T17:27:37.440Z,0.60
2019-05-22T17:30:09.439Z,0.50
2019-05-22T17:32:40.840Z,0.50
2019-05-22T17:35:11.839Z,0.57
2019-05-22T17:37:42.346Z,0.60
2019-05-22T17:40:13.418Z,0.90
2019-05-22T17:42:44.238Z,0.70
2019-05-22T17:45:16.628Z,0.30
2019-05-22T17:47:46.739Z,0.70
2019-05-22T17:50:26.809Z,0.50
2019-05-22T17:52:51.145Z,0.40
2019-05-22T17:55:26.138Z,0.40
2019-05-22T17:58:00.376Z,0.50
2019-05-22T18:00:35.101Z,0.50
2019-05-22T18:03:05.234Z,0.50
2019-05-22T18:05:35.473Z,0.40
2019-05-22T18:08:05.875Z,0.50
2019-05-22T18:10:40.458Z,0.50
2019-05-22T18:13:12.453Z,0.60
2019-05-22T18:15:46.210Z,0.40
2019-05-22T18:18:17.123Z,0.50
2019-05-22T18:20:47.131Z,0.50
2019-05-22T18:23:16.592Z,0.50
2019-05-22T18:25:45.985Z,0.53
2019-05-22T18:28:15.788Z,0.60
2019-05-22T18:30:45.646Z,0.60
2019-05-22T18:33:15.767Z,0.57
2019-05-22T18:35:45.291Z,0.70
2019-05-22T18:38:14.689Z,0.70
2019-05-22T18:40:44.121Z,0.80
2019-05-22T18:43:18.851Z,0.43
2019-05-22T18:45:47.861Z,0.57
2019-05-22T18:48:17.270Z,0.43
2019-05-22T18:50:48.690Z,0.47
2019-05-22T18:53:18.315Z,0.53
2019-05-22T18:55:47.786Z,0.50
2019-05-22T18:58:17.165Z,0.30
2019-05-22T19:00:46.692Z,0.60
2019-05-22T19:03:16.174Z,0.50
2019-05-22T19:05:46.259Z,0.43
2019-05-22T19:08:15.709Z,0.30
2019-05-22T19:10:45.143Z,0.40
2019-05-22T19:13:17.056Z,0.50
2019-05-22T19:15:46.594Z,0.70
2019-05-22T19:18:16.109Z,0.70
2019-05-22T19:20:45.628Z,0.63
2019-05-22T19:23:15.450Z,0.60
2019-05-22T19:25:45.029Z,0.50
2019-05-22T19:28:14.497Z,0.70
2019-05-22T19:30:44.143Z,0.70
2019-05-22T19:33:15.099Z,0.90
2019-05-22T19:35:44.851Z,0.60
2019-05-22T19:38:14.597Z,0.60
2019-05-22T19:40:44.213Z,1.00
2019-05-22T19:43:14.021Z,0.53
2019-05-22T19:45:44.478Z,0.67
2019-05-22T19:48:15.111Z,0.60
2019-05-22T19:50:46.951Z,0.80
2019-05-22T19:53:19.619Z,0.90
2019-05-22T19:55:49.212Z,1.40
2019-05-22T19:58:21.992Z,1.83
2019-05-22T20:00:51.503Z,1.40
2019-05-22T20:03:21.049Z,1.17
2019-05-22T20:05:50.653Z,1.30
2019-05-22T20:08:20.900Z,1.00
2019-05-22T20:10:51.445Z,1.10
2019-05-22T20:13:23.760Z,1.00
2019-05-22T20:15:53.369Z,0.80
2019-05-22T20:18:22.724Z,1.10
2019-05-22T20:20:52.144Z,0.60
2019-05-22T20:23:34.725Z,0.67
2019-05-22T20:25:53.217Z,0.40
2019-05-22T20:28:22.857Z,0.47
2019-05-22T20:30:52.326Z,1.07
2019-05-22T20:33:22.168Z,0.87
2019-05-22T20:35:51.776Z,0.90
2019-05-22T20:38:21.178Z,1.00
2019-05-22T20:40:51.979Z,0.73
2019-05-22T20:43:22.282Z,1.10
2019-05-22T20:45:53.562Z,0.87
2019-05-22T20:48:28.217Z,0.90
2019-05-22T20:51:00.004Z,1.87
2019-05-22T20:53:31.098Z,1.40
2019-05-22T20:56:01.290Z,1.20
2019-05-22T20:58:33.195Z,1.20
2019-05-22T21:01:03.762Z,0.93
2019-05-22T21:03:33.919Z,1.27
2019-05-22T21:06:07.791Z,0.90
2019-05-22T21:08:38.268Z,1.00
2019-05-22T21:11:09.931Z,1.03
2019-05-22T21:13:39.867Z,1.20
2019-05-22T21:16:10.509Z,0.97
2019-05-22T21:18:47.082Z,1.10
2019-05-22T21:21:17.259Z,0.90
2019-05-22T21:23:47.158Z,1.80
2019-05-22T21:26:20.816Z,1.60
2019-05-22T21:28:50.233Z,1.40
2019-05-22T21:31:20.778Z,1.10
2019-05-22T21:33:52.107Z,1.23
2019-05-22T21:36:23.154Z,1.23
2019-05-22T21:38:52.624Z,1.90
2019-05-22T21:41:23.205Z,1.50
2019-05-22T21:43:54.234Z,1.20
2019-05-22T21:46:24.907Z,1.10
2019-05-22T21:48:57.363Z,2.57
2019-05-22T21:51:26.917Z,2.77
2019-05-22T21:53:56.539Z,1.50
2019-05-22T21:56:26.413Z,1.30
2019-05-22T21:58:55.900Z,1.50
2019-05-22T22:01:30.146Z,1.13
2019-05-22T22:04:18.090Z,2.07
2019-05-22T22:06:48.274Z,3.20
2019-05-22T22:09:18.507Z,2.50
2019-05-22T22:11:49.652Z,2.93
2019-05-22T22:14:20.270Z,2.83
2019-05-22T22:16:49.803Z,2.47
2019-05-22T22:19:20.267Z,1.90
2019-05-22T22:21:50.572Z,1.40
2019-05-22T22:24:20.114Z,1.97
2019-05-22T22:26:50.438Z,2.50
2019-05-22T22:29:21.819Z,1.60
2019-05-22T22:31:51.886Z,1.20
2019-05-22T22:34:41.031Z,1.37
2019-05-22T22:37:11.983Z,1.47
2019-05-22T22:39:44.505Z,1.00
2019-05-22T22:42:17.183Z,1.20
2019-05-22T22:44:50.071Z,1.80
2019-05-22T22:47:25.774Z,1.37
2019-05-22T22:49:58.341Z,1.20
2019-05-22T22:52:29.371Z,0.93
2019-05-22T22:55:00.412Z,1.00
2019-05-22T22:57:30.074Z,2.27
2019-05-22T22:59:59.473Z,1.57
2019-05-22T23:02:30.866Z,0.90
2019-05-22T23:05:01.537Z,1.23
2019-05-22T23:07:32.550Z,1.10
2019-05-22T23:10:04.079Z,1.20
2019-05-22T23:12:35.395Z,1.30
2019-05-22T23:15:06.034Z,1.30
2019-05-22T23:17:36.380Z,1.60
2019-05-22T23:20:05.634Z,1.10
2019-05-22T23:22:34.836Z,1.40
2019-05-22T23:25:06.452Z,1.10
2019-05-22T23:27:37.078Z,1.00
2019-05-22T23:30:08.025Z,1.20
2019-05-22T23:32:37.407Z,1.10
2019-05-22T23:35:07.141Z,1.10
2019-05-22T23:37:37.354Z,1.37
2019-05-22T23:40:09.033Z,1.20
2019-05-22T23:42:42.287Z,1.17
2019-05-22T23:45:15.337Z,0.90
2019-05-22T23:48:12.127Z,1.17
2019-05-22T23:50:43.205Z,0.90
2019-05-22T23:53:13.656Z,0.80
2019-05-22T23:55:44.184Z,0.80
2019-05-22T23:58:16.647Z,0.80
